Aspinwall, Pennsylvania
Current Conditions -  °F | °C
As of 4:53 PM on Wednesday 28 Jan 2015 (Local Time) from KAGC Reporting Station
Clear Clear  
Wind Chill: 13°   Ceiling: Unl
Heat Index: 21°   Visibility: 10mi
Dew Point:   Wind: 6mph
Humidity: 50%   Direction: 270°W
Pressure: 30.29"   Gusts: NA
Location:  40.5049°N, 79.9132°W
Report Text: KAGC 282153Z AUTO 27005KT 10SM CLR M06/M15 A3029 RMK AO2 SLP287 T10611150 TSNO
Loading
Personal Weather Stations






























Interactive Weather Map New forecast layout! Learn more

10-Day Weather Forecast

Advertisements
Track Severe Weather on mobile